Time;durP1;ratioP1;P1;durP2;ratioP2;P2;SDS_P1;SDS_P2;PMS_P1;PMS_P2;Temp;Humidity;BMP_temperature;BMP_pressure;BME280_temperature;BME280_humidity;BME280_pressure;Samples;Min_cycle;Max_cycle;Signal;HPM_P1;HPM_P2
2022/03/26 00:02:03;;;;;;;;;;;;;;;6.26;100.00;103204.97;5114896;27;20010;-76
2022/03/26 00:04:28;;;;;;;;;;;;;;;6.24;100.00;103210.06;5132482;27;20030;-75
2022/03/26 00:06:54;;;;;;;;;;;;;;;6.23;100.00;103210.88;5114720;27;19922;-74
2022/03/26 00:09:19;;;;;;;;;;;;;;;6.21;100.00;103206.28;5097821;28;20018;-74
2022/03/26 00:11:44;;;;;;;;;;;;;;;6.22;100.00;103208.13;5114666;27;19926;-74
2022/03/26 00:14:11;;;;;;;;;;;;;;;6.15;100.00;103205.72;5094119;28;20379;-75
2022/03/26 00:16:36;;;;;;;;;;;;;;;6.07;100.00;103220.69;5099702;28;19998;-76
2022/03/26 00:19:01;;;;;;;;;;;;;;;6.04;100.00;103221.31;5123710;27;19919;-75
2022/03/26 00:21:27;;;;;;;;;;;;;;;5.98;100.00;103218.19;5114811;27;19915;-75
2022/03/26 00:23:52;;;;;;;;;;;;;;;5.95;100.00;103215.25;5133005;27;19926;-76
2022/03/26 00:26:17;;;;;;;;;;;;;;;5.92;100.00;103218.47;5114652;28;19920;-74
2022/03/26 00:28:43;;;;;;;;;;;;;;;5.89;100.00;103215.56;5098116;27;19920;-75
2022/03/26 00:31:08;;;;;;;;;;;;;;;5.86;100.00;103219.63;5114184;28;20002;-75
2022/03/26 00:33:33;;;;;;;;;;;;;;;5.83;100.00;103219.34;5114546;28;19927;-74
2022/03/26 00:35:59;;;;;;;;;;;;;;;5.81;100.00;103213.97;5117924;27;20313;-75
2022/03/26 00:38:24;;;;;;;;;;;;;;;5.69;100.00;103218.94;5121577;27;19916;-76
2022/03/26 00:40:49;;;;;;;;;;;;;;;5.60;100.00;103218.09;5121521;27;19949;-75
2022/03/26 00:43:16;;;;;;;;;;;;;;;5.65;100.00;103226.34;5120879;27;20382;-73
2022/03/26 00:45:42;;;;;;;;;;;;;;;5.71;100.00;103222.63;5119583;27;19923;-74
2022/03/26 00:48:07;;;;;;;;;;;;;;;5.83;100.00;103221.94;5120786;27;19916;-76
2022/03/26 00:50:34;;;;;;;;;;;;;;;5.82;100.00;103220.09;5120984;27;19915;-74
2022/03/26 00:52:59;;;;;;;;;;;;;;;5.79;100.00;103215.50;5103385;27;20314;-75
2022/03/26 00:55:24;;;;;;;;;;;;;;;5.79;100.00;103219.81;5120934;27;19919;-75
2022/03/26 00:57:50;;;;;;;;;;;;;;;5.83;100.00;103221.94;5121065;27;19919;-75
2022/03/26 01:00:15;;;;;;;;;;;;;;;5.86;100.00;103222.22;5120199;27;19967;-76
2022/03/26 01:02:40;;;;;;;;;;;;;;;5.89;100.00;103230.34;5120814;27;19916;-74
2022/03/26 01:05:07;;;;;;;;;;;;;;;5.87;100.00;103229.28;5120210;27;19915;-75
2022/03/26 01:07:32;;;;;;;;;;;;;;;5.96;100.00;103224.00;5118024;27;19987;-76
2022/03/26 01:09:58;;;;;;;;;;;;;;;5.99;100.00;103229.53;5120644;27;20002;-75
2022/03/26 01:12:23;;;;;;;;;;;;;;;6.00;100.00;103220.94;5120998;27;19945;-76
2022/03/26 01:14:51;;;;;;;;;;;;;;;5.96;100.00;103224.91;5120536;27;19983;-76
2022/03/26 01:17:17;;;;;;;;;;;;;;;5.93;100.00;103216.78;5120389;27;19920;-73
2022/03/26 01:19:43;;;;;;;;;;;;;;;5.94;100.00;103223.84;5120768;27;20014;-75
2022/03/26 01:22:08;;;;;;;;;;;;;;;5.86;100.00;103222.22;5138331;27;19968;-75
2022/03/26 01:24:35;;;;;;;;;;;;;;;5.83;100.00;103216.72;5120625;27;20390;-75
2022/03/26 01:27:00;;;;;;;;;;;;;;;5.80;100.00;103219.03;5119614;27;19919;-74
2022/03/26 01:29:25;;;;;;;;;;;;;;;5.79;100.00;103217.19;5119588;27;19940;-75
2022/03/26 01:31:51;;;;;;;;;;;;;;;5.78;100.00;103207.50;5120489;27;19923;-75
2022/03/26 01:34:16;;;;;;;;;;;;;;;5.74;100.00;103215.06;5119496;27;19919;-75
2022/03/26 01:36:42;;;;;;;;;;;;;;;5.69;100.00;103216.34;5120063;27;19996;-77
2022/03/26 01:39:07;;;;;;;;;;;;;;;5.61;100.00;103206.88;5120617;27;19965;-76
2022/03/26 01:41:33;;;;;;;;;;;;;;;5.56;100.00;103201.22;5120611;27;20426;-74
2022/03/26 01:43:58;;;;;;;;;;;;;;;5.56;100.00;103211.66;5120692;27;20084;-74
2022/03/26 01:46:24;;;;;;;;;;;;;;;5.53;100.00;103199.97;5119602;27;20393;-76
2022/03/26 01:48:49;;;;;;;;;;;;;;;5.47;100.00;103205.56;5135116;27;19917;-77
2022/03/26 01:51:15;;;;;;;;;;;;;;;5.50;100.00;103210.13;5117467;27;19916;-75
2022/03/26 01:53:45;;;;;;;;;;;;;;;5.46;100.00;103203.72;5117211;27;19923;-77
2022/03/26 01:56:11;;;;;;;;;;;;;;;5.44;100.00;103202.66;5117077;27;19945;-76
2022/03/26 01:58:36;;;;;;;;;;;;;;;5.37;100.00;103208.97;5117987;27;19922;-77
2022/03/26 02:01:03;;;;;;;;;;;;;;;5.35;100.00;103205.31;5117193;27;20002;-77
2022/03/26 02:03:29;;;;;;;;;;;;;;;5.32;100.00;103205.03;5116985;27;19915;-78
2022/03/26 02:05:55;;;;;;;;;;;;;;;5.33;100.00;103201.66;5135244;27;19916;-77
2022/03/26 02:08:21;;;;;;;;;;;;;;;5.34;100.00;103194.72;5117593;27;19919;-76
2022/03/26 02:10:46;;;;;;;;;;;;;;;5.37;100.00;103198.53;5116853;27;20394;-74
2022/03/26 02:13:13;;;;;;;;;;;;;;;5.33;100.00;103190.25;5099932;27;19919;-75
2022/03/26 02:15:40;;;;;;;;;;;;;;;5.32;100.00;103193.66;5117162;27;19923;-76
2022/03/26 02:18:06;;;;;;;;;;;;;;;5.28;100.00;103192.44;5135232;27;19930;-77
2022/03/26 02:20:31;;;;;;;;;;;;;;;5.30;100.00;103201.34;5135547;27;19924;-76
2022/03/26 02:22:57;;;;;;;;;;;;;;;5.31;100.00;103190.09;5117014;27;19915;-76
2022/03/26 02:25:23;;;;;;;;;;;;;;;5.29;100.00;103185.53;5114339;27;19923;-74
2022/03/26 02:27:48;;;;;;;;;;;;;;;5.29;100.00;103188.16;5117333;27;19915;-76
2022/03/26 02:30:15;;;;;;;;;;;;;;;5.28;100.00;103192.44;5115780;27;20290;-76
2022/03/26 02:32:40;;;;;;;;;;;;;;;5.24;100.00;103184.19;5115969;27;19919;-75
2022/03/26 02:35:08;;;;;;;;;;;;;;;5.16;100.00;103180.84;5116331;27;20275;-77
2022/03/26 02:37:33;;;;;;;;;;;;;;;5.15;100.00;103184.22;5116916;27;20043;-76
2022/03/26 02:39:59;;;;;;;;;;;;;;;5.14;100.00;103184.97;5116474;27;20348;-78
2022/03/26 02:42:25;;;;;;;;;;;;;;;5.09;100.00;103189.75;5116983;27;19912;-74
2022/03/26 02:44:51;;;;;;;;;;;;;;;5.02;100.00;103185.66;5115883;27;19941;-75
2022/03/26 02:47:18;;;;;;;;;;;;;;;4.98;100.00;103187.81;5116212;27;19922;-76
2022/03/26 02:49:43;;;;;;;;;;;;;;;5.01;100.00;103190.72;5117316;27;19916;-77
2022/03/26 02:52:08;;;;;;;;;;;;;;;5.00;100.00;103183.66;5115857;27;20432;-77
2022/03/26 02:54:35;;;;;;;;;;;;;;;4.93;100.00;103179.53;5117041;27;20032;-74
2022/03/26 02:57:01;;;;;;;;;;;;;;;4.93;100.00;103171.72;5114818;27;20294;-74
2022/03/26 02:59:26;;;;;;;;;;;;;;;4.91;100.00;103175.88;5093300;28;19931;-75
2022/03/26 03:01:54;;;;;;;;;;;;;;;4.89;100.00;103176.50;5107002;27;19919;-76
2022/03/26 03:04:22;;;;;;;;;;;;;;;4.91;100.00;103178.50;5115665;27;19916;-75
2022/03/26 03:06:48;;;;;;;;;;;;;;;4.89;100.00;103179.09;5114660;27;19923;-74
2022/03/26 03:09:13;;;;;;;;;;;;;;;4.84;100.00;103176.97;5115394;27;19919;-73
2022/03/26 03:11:39;;;;;;;;;;;;;;;4.85;100.00;103177.91;5115818;27;19915;-74
2022/03/26 03:14:04;;;;;;;;;;;;;;;4.82;100.00;103183.75;5115155;27;19938;-74
2022/03/26 03:16:30;;;;;;;;;;;;;;;4.83;100.00;103184.66;5115011;27;19920;-74
2022/03/26 03:18:56;;;;;;;;;;;;;;;4.83;100.00;103182.03;5114916;27;19919;-77
2022/03/26 03:21:21;;;;;;;;;;;;;;;4.87;100.00;103180.66;5113914;27;20394;-74
2022/03/26 03:23:46;;;;;;;;;;;;;;;4.82;100.00;103178.50;5114440;27;20013;-74
2022/03/26 03:26:11;;;;;;;;;;;;;;;4.80;100.00;103181.75;5114232;27;20427;-73
2022/03/26 03:28:38;;;;;;;;;;;;;;;4.85;100.00;103183.13;5114246;27;19934;-74
2022/03/26 03:31:03;;;;;;;;;;;;;;;4.85;100.00;103186.66;5114119;27;20359;-74
2022/03/26 03:33:28;;;;;;;;;;;;;;;4.86;100.00;103187.56;5114673;27;19919;-75
2022/03/26 03:35:54;;;;;;;;;;;;;;;4.87;100.00;103192.00;5115044;27;19968;-74
2022/03/26 03:38:19;;;;;;;;;;;;;;;4.88;100.00;103187.69;5094537;28;19920;-74
2022/03/26 03:40:45;;;;;;;;;;;;;;;4.87;100.00;103193.72;5097113;27;20002;-74
2022/03/26 03:43:10;;;;;;;;;;;;;;;4.88;100.00;103193.88;5114914;27;20274;-74
2022/03/26 03:45:35;;;;;;;;;;;;;;;4.84;100.00;103191.72;5133371;27;20014;-75
2022/03/26 03:48:01;;;;;;;;;;;;;;;4.87;100.00;103189.41;5133168;27;19924;-75
2022/03/26 03:50:26;;;;;;;;;;;;;;;4.90;100.00;103187.09;5115083;27;19920;-73
2022/03/26 03:52:52;;;;;;;;;;;;;;;4.91;100.00;103185.38;5114702;27;20335;-74
2022/03/26 03:55:17;;;;;;;;;;;;;;;4.92;100.00;103200.28;5113712;27;19919;-73
2022/03/26 03:57:43;;;;;;;;;;;;;;;4.93;100.00;103197.81;5115128;27;20014;-73
2022/03/26 04:00:09;;;;;;;;;;;;;;;4.95;100.00;103201.50;5114298;27;19970;-74
2022/03/26 04:02:34;;;;;;;;;;;;;;;4.93;100.00;103202.13;5113725;27;19920;-74
2022/03/26 04:05:00;;;;;;;;;;;;;;;4.93;100.00;103200.44;5114064;27;19920;-73
2022/03/26 04:07:25;;;;;;;;;;;;;;;4.95;100.00;103204.09;5114577;27;19920;-74
2022/03/26 04:09:50;;;;;;;;;;;;;;;4.94;100.00;103207.50;5113773;27;19915;-74
2022/03/26 04:12:16;;;;;;;;;;;;;;;4.88;100.00;103206.91;5114650;27;19915;-75
2022/03/26 04:14:43;;;;;;;;;;;;;;;4.88;100.00;103196.47;5114834;27;19925;-74
2022/03/26 04:17:08;;;;;;;;;;;;;;;4.84;100.00;103203.06;5114277;27;19919;-75
2022/03/26 04:19:34;;;;;;;;;;;;;;;4.86;100.00;103203.22;5114500;27;19919;-73
2022/03/26 04:21:59;;;;;;;;;;;;;;;4.77;100.00;103200.66;5113484;27;19919;-74
2022/03/26 04:24:25;;;;;;;;;;;;;;;4.73;100.00;103205.44;5113391;27;19967;-74
2022/03/26 04:26:51;;;;;;;;;;;;;;;4.69;100.00;103204.19;5114328;27;19920;-74
2022/03/26 04:29:17;;;;;;;;;;;;;;;4.71;100.00;103209.56;5113965;27;19926;-75
2022/03/26 04:31:42;;;;;;;;;;;;;;;4.67;100.00;103204.03;5114022;27;19920;-74
2022/03/26 04:34:08;;;;;;;;;;;;;;;4.66;100.00;103206.50;5114260;28;20075;-74
2022/03/26 04:36:34;;;;;;;;;;;;;;;4.63;100.00;103216.63;5114217;28;19915;-74
2022/03/26 04:38:59;;;;;;;;;;;;;;;4.57;100.00;103211.75;5132169;28;19919;-74
2022/03/26 04:41:25;;;;;;;;;;;;;;;4.55;100.00;103208.06;5132726;28;19969;-73
2022/03/26 04:43:52;;;;;;;;;;;;;;;4.52;100.00;103212.97;5113806;28;20367;-73
2022/03/26 04:46:18;;;;;;;;;;;;;;;4.52;100.00;103215.59;5093769;28;19923;-74
2022/03/26 04:48:45;;;;;;;;;;;;;;;4.53;100.00;103214.81;5112289;28;19999;-75
2022/03/26 04:51:11;;;;;;;;;;;;;;;4.51;100.00;103218.06;5093744;28;20038;-75
2022/03/26 04:53:36;;;;;;;;;;;;;;;4.56;100.00;103222.97;5094039;28;19962;-74
2022/03/26 04:56:01;;;;;;;;;;;;;;;4.63;100.00;103222.78;5093851;28;19919;-74
2022/03/26 04:58:26;;;;;;;;;;;;;;;4.61;100.00;103229.53;5093618;28;19946;-75
2022/03/26 05:00:52;;;;;;;;;;;;;;;4.55;100.00;103223.72;5094465;28;20279;-75
2022/03/26 05:03:18;;;;;;;;;;;;;;;4.60;100.00;103226.78;5112104;28;19920;-74
2022/03/26 05:05:43;;;;;;;;;;;;;;;4.56;100.00;103222.97;5094425;28;19916;-74
2022/03/26 05:08:08;;;;;;;;;;;;;;;4.54;100.00;103214.06;5093890;28;19965;-74
2022/03/26 05:10:34;;;;;;;;;;;;;;;4.58;100.00;103226.63;5093203;28;20367;-74
2022/03/26 05:13:00;;;;;;;;;;;;;;;4.62;100.00;103225.25;5092878;28;19916;-73
2022/03/26 05:15:29;;;;;;;;;;;;;;;4.56;100.00;103224.66;5093536;28;19930;-74
2022/03/26 05:17:56;;;;;;;;;;;;;;;4.53;100.00;103219.13;5093516;28;19915;-75
2022/03/26 05:20:21;;;;;;;;;;;;;;;4.51;100.00;103218.97;5093011;28;19923;-74
2022/03/26 05:22:48;;;;;;;;;;;;;;;4.46;100.00;103230.66;5094725;28;19915;-75
2022/03/26 05:25:15;;;;;;;;;;;;;;;4.43;100.00;103228.66;5096743;28;19916;-74
2022/03/26 05:27:44;;;;;;;;;;;;;;;4.39;100.00;103228.22;5097414;28;19940;-74
2022/03/26 05:30:09;;;;;;;;;;;;;;;4.37;100.00;103230.66;5097126;28;19922;-74
2022/03/26 05:32:35;;;;;;;;;;;;;;;4.32;100.00;103238.03;5116174;27;19919;-74
2022/03/26 05:35:01;;;;;;;;;;;;;;;4.39;100.00;103234.34;5117289;27;20009;-74
2022/03/26 05:37:26;;;;;;;;;;;;;;;4.45;100.00;103241.84;5117280;27;19950;-74
2022/03/26 05:39:52;;;;;;;;;;;;;;;4.45;100.00;103247.06;5117396;27;19915;-76
2022/03/26 05:42:18;;;;;;;;;;;;;;;4.43;100.00;103248.63;5116450;27;20315;-73
2022/03/26 05:44:44;;;;;;;;;;;;;;;4.44;100.00;103245.22;5135765;27;20015;-74
2022/03/26 05:47:09;;;;;;;;;;;;;;;4.46;100.00;103249.84;5135256;27;20006;-76
2022/03/26 05:49:34;;;;;;;;;;;;;;;4.49;100.00;103244.91;5100403;27;19951;-73
2022/03/26 05:51:59;;;;;;;;;;;;;;;4.58;100.00;103249.19;5116719;27;20010;-73
2022/03/26 05:54:26;;;;;;;;;;;;;;;4.62;100.00;103252.25;5115948;27;19958;-74
2022/03/26 05:56:51;;;;;;;;;;;;;;;4.75;100.00;103259.59;5098536;27;20364;-74
2022/03/26 05:59:18;;;;;;;;;;;;;;;5.00;100.00;103259.38;5086641;27;20033;-73
2022/03/26 06:01:43;;;;;;;;;;;;;;;5.31;100.00;103260.66;5083562;27;19989;-74
2022/03/26 06:04:10;;;;;;;;;;;;;;;5.37;100.00;103268.16;5088982;27;20398;-75
2022/03/26 06:06:35;;;;;;;;;;;;;;;5.56;100.00;103276.06;5110613;27;19919;-75
2022/03/26 06:09:00;;;;;;;;;;;;;;;5.51;100.00;103273.00;5134514;27;19916;-75
2022/03/26 06:11:25;;;;;;;;;;;;;;;5.86;100.00;103270.22;5098763;27;19959;-76
2022/03/26 06:13:51;;;;;;;;;;;;;;;6.10;100.00;103266.38;5100216;27;19964;-75
2022/03/26 06:16:16;;;;;;;;;;;;;;;6.32;100.00;103272.66;5116292;27;19927;-75
2022/03/26 06:18:42;;;;;;;;;;;;;;;6.50;100.00;103261.28;5117255;27;19923;-75
2022/03/26 06:21:07;;;;;;;;;;;;;;;6.72;100.00;103268.47;5134485;27;20002;-75
2022/03/26 06:23:33;;;;;;;;;;;;;;;6.91;100.00;103276.25;5134111;27;20488;-73
2022/03/26 06:25:58;;;;;;;;;;;;;;;7.06;100.00;103275.00;5116425;27;19915;-73
2022/03/26 06:28:24;;;;;;;;;;;;;;;7.27;100.00;103267.22;5116476;27;19919;-73
2022/03/26 06:30:49;;;;;;;;;;;;;;;7.87;100.00;103267.16;5115519;27;19926;-74
2022/03/26 06:33:16;;;;;;;;;;;;;;;8.09;100.00;103264.66;5115859;27;19919;-74
2022/03/26 06:35:45;;;;;;;;;;;;;;;8.76;100.00;103255.34;5114391;27;19955;-73
2022/03/26 06:38:10;;;;;;;;;;;;;;;9.68;100.00;103254.81;5115705;27;19915;-73
2022/03/26 06:40:37;;;;;;;;;;;;;;;10.16;100.00;103247.00;5133912;27;19926;-73
2022/03/26 06:43:03;;;;;;;;;;;;;;;10.16;100.00;103239.13;5133784;27;19926;-72
2022/03/26 06:45:28;;;;;;;;;;;;;;;10.19;100.00;103241.97;5106226;27;20022;-73
2022/03/26 06:47:53;;;;;;;;;;;;;;;10.45;100.00;103236.09;5115613;27;19919;-74
2022/03/26 06:50:19;;;;;;;;;;;;;;;10.62;100.00;103221.53;5115510;27;19922;-74
2022/03/26 06:52:44;;;;;;;;;;;;;;;10.85;100.00;103222.31;5114420;27;19919;-74
2022/03/26 06:55:10;;;;;;;;;;;;;;;10.72;100.00;103213.50;5133419;27;19916;-73
2022/03/26 06:57:36;;;;;;;;;;;;;;;11.00;100.00;103217.22;5114640;27;20381;-73
2022/03/26 07:00:01;;;;;;;;;;;;;;;11.40;100.00;103204.22;5114852;27;20014;-73
2022/03/26 07:02:27;;;;;;;;;;;;;;;11.43;100.00;103213.25;5114381;27;19916;-73
2022/03/26 07:04:52;;;;;;;;;;;;;;;10.65;100.00;103211.22;5114374;27;19931;-73
2022/03/26 07:07:18;;;;;;;;;;;;;;;10.14;100.00;103215.31;5114768;27;19920;-72
2022/03/26 07:09:43;;;;;;;;;;;;;;;10.29;100.00;103220.81;5096139;27;19916;-73
2022/03/26 07:12:08;;;;;;;;;;;;;;;10.47;100.00;103225.66;5108951;27;20294;-73
2022/03/26 07:14:34;;;;;;;;;;;;;;;10.00;100.00;103216.88;5114136;27;20006;-73
2022/03/26 07:16:59;;;;;;;;;;;;;;;9.68;100.00;103217.09;5114450;27;20032;-76
2022/03/26 07:19:24;;;;;;;;;;;;;;;9.75;100.00;103221.09;5113821;27;19923;-75
2022/03/26 07:21:50;;;;;;;;;;;;;;;9.85;100.00;103227.19;5132486;27;20416;-75
2022/03/26 07:24:15;;;;;;;;;;;;;;;9.91;100.00;103231.97;5132397;27;19927;-76
2022/03/26 07:26:41;;;;;;;;;;;;;;;9.76;100.00;103229.09;5129751;27;20349;-77
2022/03/26 07:29:06;;;;;;;;;;;;;;;9.69;100.00;103238.25;5098039;28;19912;-75
2022/03/26 07:31:33;;;;;;;;;;;;;;;9.66;100.00;103243.28;5117127;27;20015;-75
2022/03/26 07:33:58;;;;;;;;;;;;;;;9.68;100.00;103239.03;5114721;27;20375;-76
2022/03/26 07:36:23;;;;;;;;;;;;;;;10.01;100.00;103249.41;5110299;27;19919;-75
2022/03/26 07:38:49;;;;;;;;;;;;;;;10.55;100.00;103248.22;5133638;27;19972;-75
2022/03/26 07:41:14;;;;;;;;;;;;;;;10.66;100.00;103255.22;5114153;27;19916;-74
2022/03/26 07:43:40;;;;;;;;;;;;;;;10.62;100.00;103252.25;5133260;27;19972;-74
2022/03/26 07:46:05;;;;;;;;;;;;;;;10.59;100.00;103251.19;5113848;27;19919;-75
2022/03/26 07:48:30;;;;;;;;;;;;;;;10.88;100.00;103254.16;5114361;27;19911;-74
2022/03/26 07:50:55;;;;;;;;;;;;;;;10.93;100.00;103260.69;5133156;27;19915;-74
2022/03/26 07:53:22;;;;;;;;;;;;;;;10.98;100.00;103259.28;5108366;28;19924;-75
2022/03/26 07:55:48;;;;;;;;;;;;;;;11.29;100.00;103256.22;5093613;28;20296;-72
2022/03/26 07:58:13;;;;;;;;;;;;;;;11.24;100.00;103262.91;5094123;28;19966;-74
2022/03/26 08:00:39;;;;;;;;;;;;;;;11.45;100.00;103264.44;5099244;27;19950;-74
2022/03/26 08:03:05;;;;;;;;;;;;;;;11.92;100.00;103272.94;5131409;27;19920;-73
2022/03/26 08:05:30;;;;;;;;;;;;;;;12.51;100.00;103273.47;5114041;27;19919;-73
2022/03/26 08:07:56;;;;;;;;;;;;;;;13.01;100.00;103274.06;5108640;27;19927;-76
2022/03/26 08:10:21;;;;;;;;;;;;;;;13.17;100.00;103275.94;5093740;28;19924;-74
2022/03/26 08:12:46;;;;;;;;;;;;;;;13.19;100.00;103280.53;5111517;27;19917;-75
2022/03/26 08:15:11;;;;;;;;;;;;;;;13.22;100.00;103288.66;5112651;27;19926;-76
2022/03/26 08:17:37;;;;;;;;;;;;;;;13.76;100.00;103285.84;5101720;28;20455;-75
2022/03/26 08:20:02;;;;;;;;;;;;;;;14.07;100.00;103288.63;5094032;28;19916;-76
2022/03/26 08:22:28;;;;;;;;;;;;;;;14.11;100.00;103281.81;5093225;28;20009;-76
2022/03/26 08:24:54;;;;;;;;;;;;;;;13.69;100.00;103286.28;5093284;28;20264;-77
2022/03/26 08:27:19;;;;;;;;;;;;;;;13.78;100.00;103289.50;5114125;28;19915;-75
2022/03/26 08:29:46;;;;;;;;;;;;;;;13.80;100.00;103290.53;5132383;27;19941;-76
2022/03/26 08:32:11;;;;;;;;;;;;;;;14.62;100.00;103296.34;5113376;27;19920;-75
2022/03/26 08:34:37;;;;;;;;;;;;;;;14.03;100.00;103298.94;5110340;28;20391;-74
2022/03/26 08:37:03;;;;;;;;;;;;;;;13.59;100.00;103292.75;5092939;28;19968;-74
2022/03/26 08:39:28;;;;;;;;;;;;;;;13.65;100.00;103290.47;5111472;28;19916;-75
2022/03/26 08:41:53;;;;;;;;;;;;;;;13.42;100.00;103296.97;5109029;28;19931;-75
2022/03/26 08:44:21;;;;;;;;;;;;;;;13.60;100.00;103287.53;5131679;28;19920;-74
2022/03/26 08:46:51;;;;;;;;;;;;;;;13.39;100.00;103283.53;5096761;28;20001;-73
2022/03/26 08:49:16;;;;;;;;;;;;;;;13.43;100.00;103285.56;5114927;28;19915;-75
2022/03/26 08:51:42;;;;;;;;;;;;;;;13.59;100.00;103291.00;5112980;28;20401;-76
2022/03/26 08:54:08;;;;;;;;;;;;;;;13.57;100.00;103291.75;5104157;28;20007;-76
2022/03/26 08:56:34;;;;;;;;;;;;;;;13.97;100.00;103287.16;5134181;27;19919;-77
2022/03/26 08:58:59;;;;;;;;;;;;;;;14.15;100.00;103291.75;5117994;27;19919;-76
2022/03/26 09:01:24;;;;;;;;;;;;;;;14.25;100.00;103296.78;5118267;27;19922;-77
2022/03/26 09:03:50;;;;;;;;;;;;;;;14.61;100.00;103296.25;5117347;27;19919;-75
2022/03/26 09:06:16;;;;;;;;;;;;;;;14.41;100.00;103292.41;5118385;27;19915;-75
2022/03/26 09:08:41;;;;;;;;;;;;;;;14.69;100.00;103293.22;5118298;27;19926;-77
2022/03/26 09:11:06;;;;;;;;;;;;;;;14.75;100.00;103297.97;5100328;27;19924;-76
2022/03/26 09:13:32;;;;;;;;;;;;;;;14.57;100.00;103299.50;5117880;27;20013;-76
2022/03/26 09:15:58;;;;;;;;;;;;;;;14.52;100.00;103302.78;5117991;27;20047;-77
2022/03/26 09:18:24;;;;;;;;;;;;;;;14.18;100.00;103294.59;5117405;27;19939;-78
2022/03/26 09:20:50;;;;;;;;;;;;;;;13.82;100.00;103292.44;5136119;27;19919;-77
2022/03/26 09:23:15;;;;;;;;;;;;;;;14.03;100.00;103301.59;5136237;27;19916;-80
2022/03/26 09:25:42;;;;;;;;;;;;;;;14.02;100.00;103295.41;5135693;27;20570;-77
2022/03/26 09:28:07;;;;;;;;;;;;;;;14.01;100.00;103301.50;5118020;27;19911;-77
2022/03/26 09:30:33;;;;;;;;;;;;;;;13.93;100.00;103303.69;5118194;27;19923;-79
2022/03/26 09:32:59;;;;;;;;;;;;;;;13.62;100.00;103300.88;5135289;27;19946;-77
2022/03/26 09:35:25;;;;;;;;;;;;;;;13.57;100.00;103305.88;5116975;27;19923;-74
2022/03/26 09:37:50;;;;;;;;;;;;;;;13.71;100.00;103300.56;5116954;27;20324;-77
2022/03/26 09:40:16;;;;;;;;;;;;;;;13.75;100.00;103307.84;5116565;27;19999;-75
2022/03/26 09:42:41;;;;;;;;;;;;;;;13.83;100.00;103299.56;5099921;27;20553;-75
2022/03/26 09:45:07;;;;;;;;;;;;;;;14.16;100.00;103296.22;5115275;27;19966;-71
2022/03/26 09:47:33;;;;;;;;;;;;;;;14.18;100.00;103298.16;5099436;27;20010;-74
2022/03/26 09:49:59;;;;;;;;;;;;;;;14.15;100.00;103312.94;5117372;27;19984;-74
2022/03/26 09:52:24;;;;;;;;;;;;;;;14.12;100.00;103304.81;5135590;27;19972;-75
2022/03/26 09:54:50;;;;;;;;;;;;;;;14.29;100.00;103309.41;5116288;27;20216;-74
2022/03/26 09:57:15;;;;;;;;;;;;;;;14.22;100.00;103306.31;5117035;27;20002;-73
2022/03/26 09:59:40;;;;;;;;;;;;;;;14.41;100.00;103306.56;5133678;27;19919;-73
2022/03/26 10:02:05;;;;;;;;;;;;;;;14.30;100.00;103305.00;5111208;27;19940;-74
2022/03/26 10:04:36;;;;;;;;;;;;;;;14.23;100.00;103297.50;5115989;27;20363;-75
2022/03/26 10:07:01;;;;;;;;;;;;;;;14.41;100.00;103305.66;5082156;27;19927;-76
2022/03/26 10:09:33;;;;;;;;;;;;;;;14.14;100.00;103298.78;5096867;28;19980;-74
2022/03/26 10:12:19;;;;;;;;;;;;;;;14.18;100.00;103299.88;5096485;28;19923;-76
2022/03/26 10:14:47;;;;;;;;;;;;;;;14.38;100.00;103306.38;5094846;28;19927;-75
2022/03/26 10:17:14;;;;;;;;;;;;;;;14.52;100.00;103291.28;5096271;28;19926;-73
2022/03/26 10:19:43;;;;;;;;;;;;;;;14.70;100.00;103302.09;5103921;27;19922;-74
2022/03/26 10:22:22;;;;;;;;;;;;;;;14.60;100.00;103299.69;5115840;27;19936;-74
2022/03/26 10:24:48;;;;;;;;;;;;;;;14.87;100.00;103289.81;5134698;27;19979;-75
2022/03/26 10:27:13;;;;;;;;;;;;;;;14.85;100.00;103296.75;5116782;27;20006;-73
2022/03/26 10:29:49;;;;;;;;;;;;;;;14.76;100.00;103296.22;5115896;27;19916;-76
2022/03/26 10:32:38;;;;;;;;;;;;;;;14.63;100.00;103300.81;5116383;27;19919;-76
2022/03/26 10:35:04;;;;;;;;;;;;;;;14.56;100.00;103295.97;5117351;27;19919;-76
2022/03/26 10:37:30;;;;;;;;;;;;;;;14.78;100.00;103289.28;5134211;27;19919;-77
2022/03/26 10:39:55;;;;;;;;;;;;;;;14.61;100.00;103283.91;5116573;27;19915;-76
2022/03/26 10:42:28;;;;;;;;;;;;;;;14.84;100.00;103289.66;5115887;27;19923;-74
2022/03/26 10:44:54;;;;;;;;;;;;;;;14.68;100.00;103287.81;5134248;27;20395;-77
2022/03/26 10:47:20;;;;;;;;;;;;;;;14.57;100.00;103278.31;5116080;27;19968;-77
2022/03/26 10:49:47;;;;;;;;;;;;;;;14.72;100.00;103289.84;5114820;27;19919;-74
2022/03/26 10:52:15;;;;;;;;;;;;;;;14.93;100.00;103278.63;5099655;27;20011;-77
2022/03/26 10:54:41;;;;;;;;;;;;;;;14.99;100.00;103278.97;5134671;27;19938;-75
2022/03/26 10:57:06;;;;;;;;;;;;;;;14.86;100.00;103275.63;5100245;28;20374;-77
2022/03/26 10:59:32;;;;;;;;;;;;;;;15.11;100.00;103273.44;5095566;28;19923;-76
2022/03/26 11:01:58;;;;;;;;;;;;;;;15.19;100.00;103280.09;5104199;27;19920;-76
2022/03/26 11:04:25;;;;;;;;;;;;;;;15.18;100.00;103283.56;5115059;27;19919;-74
2022/03/26 11:06:50;;;;;;;;;;;;;;;15.27;100.00;103281.41;5115379;27;20255;-75
2022/03/26 11:09:16;;;;;;;;;;;;;;;15.20;100.00;103287.25;5115976;27;20477;-78
2022/03/26 11:11:45;;;;;;;;;;;;;;;15.38;100.00;103282.94;5115798;27;19920;-76
2022/03/26 11:14:32;;;;;;;;;;;;;;;15.37;100.00;103282.88;5116451;27;20303;-76
2022/03/26 11:17:04;;;;;;;;;;;;;;;15.10;100.00;103276.91;5133772;27;20551;-76
2022/03/26 11:19:32;;;;;;;;;;;;;;;15.34;100.00;103275.63;5106457;28;19943;-76
2022/03/26 11:21:57;;;;;;;;;;;;;;;15.26;100.00;103274.31;5098919;28;20333;-76
2022/03/26 11:24:44;;;;;;;;;;;;;;;15.19;100.00;103280.09;5132639;27;20006;-77
2022/03/26 11:27:21;;;;;;;;;;;;;;;15.35;100.00;103266.84;5115799;27;19915;-77
2022/03/26 11:30:02;;;;;;;;;;;;;;;15.32;100.00;103264.03;5115467;27;20428;-77
2022/03/26 11:32:34;;;;;;;;;;;;;;;15.21;100.00;103265.16;5134517;27;19919;-77
2022/03/26 11:35:05;;;;;;;;;;;;;;;15.53;100.00;103258.97;5115883;27;19919;-76
2022/03/26 11:37:30;;;;;;;;;;;;;;;15.68;100.00;103258.88;5096512;27;19919;-75
2022/03/26 11:39:59;;;;;;;;;;;;;;;15.60;100.00;103268.19;5098529;27;20367;-77
2022/03/26 11:42:33;;;;;;;;;;;;;;;15.52;100.00;103264.19;5115410;27;19960;-76
2022/03/26 11:50:46;;;;;;;;;;;;;;;15.86;100.00;103256.31;5132727;27;19949;-75
2022/03/26 11:53:30;;;;;;;;;;;;;;;15.74;100.00;103253.91;5114348;27;19927;-75
2022/03/26 11:55:55;;;;;;;;;;;;;;;15.83;100.00;103252.56;5115176;27;19915;-77
2022/03/26 11:58:23;;;;;;;;;;;;;;;16.02;100.00;103258.03;5097642;27;19935;-74
2022/03/26 12:00:53;;;;;;;;;;;;;;;15.57;100.00;103247.69;5114089;27;19968;-75
2022/03/26 12:03:23;;;;;;;;;;;;;;;15.85;100.00;103243.88;5130764;27;20008;-75
2022/03/26 12:08:40;;;;;;;;;;;;;;;15.84;100.00;103247.34;5119141;27;20324;-76
2022/03/26 12:11:05;;;;;;;;;;;;;;;15.89;100.00;103242.28;5133454;27;20439;-77
2022/03/26 12:13:32;;;;;;;;;;;;;;;16.05;100.00;103231.63;5114322;27;19923;-77
2022/03/26 12:16:00;;;;;;;;;;;;;;;16.18;100.00;103232.25;5097356;27;19919;-76
2022/03/26 12:18:36;;;;;;;;;;;;;;;15.79;100.00;103236.47;5114756;27;19919;-75
2022/03/26 12:21:08;;;;;;;;;;;;;;;15.91;100.00;103235.28;5114570;28;19920;-75
2022/03/26 12:23:34;;;;;;;;;;;;;;;16.14;100.00;103239.13;5114480;27;19942;-77
2022/03/26 12:26:00;;;;;;;;;;;;;;;15.86;100.00;103231.47;5133858;27;19937;-77
2022/03/26 12:28:25;;;;;;;;;;;;;;;16.10;100.00;103237.16;5113957;27;19923;-76
2022/03/26 12:30:54;;;;;;;;;;;;;;;15.90;100.00;103239.69;5113831;28;20018;-77
2022/03/26 12:33:22;;;;;;;;;;;;;;;16.00;100.00;103232.19;5114354;28;19920;-79
2022/03/26 12:35:48;;;;;;;;;;;;;;;16.03;100.00;103233.25;5114887;28;19916;-76
2022/03/26 12:38:13;;;;;;;;;;;;;;;16.07;100.00;103227.28;5098216;28;20021;-74